sensor_id;sensor_type;location;lat;lon;timestamp;P1;durP1;ratioP1;P2;durP2;ratioP2
57313;SDS011;53202;50.976;18.216;2023-02-01T00:08:10;16.20;;;4.10;;
57313;SDS011;53202;50.976;18.216;2023-02-01T00:17:54;5.20;;;3.80;;
57313;SDS011;53202;50.976;18.216;2023-02-01T00:27:39;17.70;;;5.10;;
57313;SDS011;53202;50.976;18.216;2023-02-01T00:37:23;10.70;;;2.70;;
57313;SDS011;53202;50.976;18.216;2023-02-01T00:47:07;5.90;;;2.50;;
57313;SDS011;53202;50.976;18.216;2023-02-01T00:56:50;17.40;;;5.60;;
57313;SDS011;53202;50.976;18.216;2023-02-01T01:06:34;18.20;;;2.90;;
57313;SDS011;53202;50.976;18.216;2023-02-01T01:16:21;9.50;;;5.20;;
57313;SDS011;53202;50.976;18.216;2023-02-01T01:26:08;15.30;;;4.00;;
57313;SDS011;53202;50.976;18.216;2023-02-01T01:35:53;7.40;;;5.30;;
57313;SDS011;53202;50.976;18.216;2023-02-01T01:45:40;6.30;;;2.80;;
57313;SDS011;53202;50.976;18.216;2023-02-01T01:55:36;2.20;;;1.30;;
57313;SDS011;53202;50.976;18.216;2023-02-01T02:05:25;18.10;;;3.60;;
57313;SDS011;53202;50.976;18.216;2023-02-01T02:07:52;23.60;;;4.10;;
57313;SDS011;53202;50.976;18.216;2023-02-01T02:17:47;9.00;;;3.20;;
57313;SDS011;53202;50.976;18.216;2023-02-01T02:28:34;8.70;;;3.00;;
57313;SDS011;53202;50.976;18.216;2023-02-01T02:39:05;16.90;;;2.40;;
57313;SDS011;53202;50.976;18.216;2023-02-01T02:50:02;23.90;;;3.70;;
57313;SDS011;53202;50.976;18.216;2023-02-01T03:01:00;27.20;;;4.30;;
57313;SDS011;53202;50.976;18.216;2023-02-01T03:11:14;19.20;;;4.00;;
57313;SDS011;53202;50.976;18.216;2023-02-01T03:21:35;16.00;;;4.30;;
57313;SDS011;53202;50.976;18.216;2023-02-01T03:31:34;61.20;;;9.40;;
57313;SDS011;53202;50.976;18.216;2023-02-01T03:41:27;39.40;;;11.50;;
57313;SDS011;53202;50.976;18.216;2023-02-01T03:51:31;20.10;;;7.40;;
57313;SDS011;53202;50.976;18.216;2023-02-01T04:01:31;16.80;;;7.00;;
57313;SDS011;53202;50.976;18.216;2023-02-01T04:11:15;11.50;;;6.50;;
57313;SDS011;53202;50.976;18.216;2023-02-01T04:21:00;11.30;;;6.90;;
57313;SDS011;53202;50.976;18.216;2023-02-01T04:30:46;26.80;;;6.50;;
57313;SDS011;53202;50.976;18.216;2023-02-01T04:40:32;12.60;;;3.40;;
57313;SDS011;53202;50.976;18.216;2023-02-01T04:50:17;10.30;;;5.80;;
57313;SDS011;53202;50.976;18.216;2023-02-01T05:00:04;39.60;;;6.10;;
57313;SDS011;53202;50.976;18.216;2023-02-01T05:09:48;39.30;;;6.30;;
57313;SDS011;53202;50.976;18.216;2023-02-01T05:19:50;5.60;;;3.70;;
57313;SDS011;53202;50.976;18.216;2023-02-01T05:29:33;34.00;;;4.20;;
57313;SDS011;53202;50.976;18.216;2023-02-01T05:39:17;9.20;;;3.20;;
57313;SDS011;53202;50.976;18.216;2023-02-01T05:49:01;33.60;;;6.80;;
57313;SDS011;53202;50.976;18.216;2023-02-01T05:58:44;28.00;;;10.10;;
57313;SDS011;53202;50.976;18.216;2023-02-01T06:08:30;31.60;;;5.90;;
57313;SDS011;53202;50.976;18.216;2023-02-01T06:18:16;37.00;;;7.40;;
57313;SDS011;53202;50.976;18.216;2023-02-01T06:28:00;44.70;;;12.10;;
57313;SDS011;53202;50.976;18.216;2023-02-01T06:37:44;74.10;;;9.50;;
57313;SDS011;53202;50.976;18.216;2023-02-01T06:47:28;15.40;;;6.60;;
57313;SDS011;53202;50.976;18.216;2023-02-01T06:57:12;14.10;;;6.10;;
57313;SDS011;53202;50.976;18.216;2023-02-01T07:06:55;27.70;;;9.40;;
57313;SDS011;53202;50.976;18.216;2023-02-01T07:16:39;9.40;;;4.50;;
57313;SDS011;53202;50.976;18.216;2023-02-01T07:26:23;30.00;;;7.00;;
57313;SDS011;53202;50.976;18.216;2023-02-01T07:36:11;2.00;;;1.90;;
57313;SDS011;53202;50.976;18.216;2023-02-01T07:45:57;37.20;;;10.30;;
57313;SDS011;53202;50.976;18.216;2023-02-01T07:55:48;14.20;;;7.30;;
57313;SDS011;53202;50.976;18.216;2023-02-01T08:05:45;23.90;;;11.80;;
57313;SDS011;53202;50.976;18.216;2023-02-01T08:15:30;34.70;;;7.60;;
57313;SDS011;53202;50.976;18.216;2023-02-01T08:25:17;20.20;;;9.00;;
57313;SDS011;53202;50.976;18.216;2023-02-01T08:35:01;24.90;;;6.30;;
57313;SDS011;53202;50.976;18.216;2023-02-01T08:45:03;18.60;;;8.10;;
57313;SDS011;53202;50.976;18.216;2023-02-01T09:02:07;40.20;;;10.50;;
57313;SDS011;53202;50.976;18.216;2023-02-01T09:11:53;43.00;;;11.50;;
57313;SDS011;53202;50.976;18.216;2023-02-01T09:21:37;18.80;;;8.70;;
57313;SDS011;53202;50.976;18.216;2023-02-01T09:31:21;28.40;;;10.50;;
57313;SDS011;53202;50.976;18.216;2023-02-01T09:41:16;65.50;;;9.10;;
57313;SDS011;53202;50.976;18.216;2023-02-01T09:51:24;33.80;;;9.70;;
57313;SDS011;53202;50.976;18.216;2023-02-01T10:01:23;16.10;;;6.30;;
57313;SDS011;53202;50.976;18.216;2023-02-01T10:22:10;31.00;;;10.90;;
57313;SDS011;53202;50.976;18.216;2023-02-01T10:39:46;29.70;;;9.00;;
57313;SDS011;53202;50.976;18.216;2023-02-01T10:59:35;16.00;;;9.60;;
57313;SDS011;53202;50.976;18.216;2023-02-01T11:09:48;33.10;;;13.40;;
57313;SDS011;53202;50.976;18.216;2023-02-01T11:19:57;41.60;;;22.20;;
57313;SDS011;53202;50.976;18.216;2023-02-01T11:29:46;14.20;;;8.00;;
57313;SDS011;53202;50.976;18.216;2023-02-01T11:39:54;30.00;;;9.50;;
57313;SDS011;53202;50.976;18.216;2023-02-01T11:49:49;22.10;;;5.00;;
57313;SDS011;53202;50.976;18.216;2023-02-01T12:00:02;52.10;;;7.00;;
57313;SDS011;53202;50.976;18.216;2023-02-01T12:21:14;17.30;;;6.40;;
57313;SDS011;53202;50.976;18.216;2023-02-01T12:31:56;9.00;;;5.70;;
57313;SDS011;53202;50.976;18.216;2023-02-01T12:42:36;26.50;;;7.00;;
57313;SDS011;53202;50.976;18.216;2023-02-01T12:52:52;6.20;;;2.60;;
57313;SDS011;53202;50.976;18.216;2023-02-01T13:02:51;16.60;;;14.90;;
57313;SDS011;53202;50.976;18.216;2023-02-01T13:13:16;22.20;;;8.60;;
57313;SDS011;53202;50.976;18.216;2023-02-01T13:23:24;17.60;;;9.90;;
57313;SDS011;53202;50.976;18.216;2023-02-01T13:44:01;5.60;;;5.10;;
57313;SDS011;53202;50.976;18.216;2023-02-01T13:54:23;19.20;;;7.90;;
57313;SDS011;53202;50.976;18.216;2023-02-01T14:04:45;10.50;;;6.40;;
57313;SDS011;53202;50.976;18.216;2023-02-01T14:14:51;16.00;;;7.90;;
57313;SDS011;53202;50.976;18.216;2023-02-01T14:25:31;28.20;;;10.90;;
57313;SDS011;53202;50.976;18.216;2023-02-01T14:35:19;21.20;;;11.10;;
57313;SDS011;53202;50.976;18.216;2023-02-01T14:55:53;5.60;;;5.00;;
57313;SDS011;53202;50.976;18.216;2023-02-01T15:06:01;14.90;;;7.00;;
57313;SDS011;53202;50.976;18.216;2023-02-01T15:16:00;9.10;;;6.80;;
57313;SDS011;53202;50.976;18.216;2023-02-01T15:25:49;17.50;;;4.80;;
57313;SDS011;53202;50.976;18.216;2023-02-01T15:35:46;7.70;;;7.00;;
57313;SDS011;53202;50.976;18.216;2023-02-01T15:45:49;14.30;;;7.30;;
57313;SDS011;53202;50.976;18.216;2023-02-01T15:55:43;13.30;;;9.40;;
57313;SDS011;53202;50.976;18.216;2023-02-01T16:05:58;16.30;;;5.80;;
57313;SDS011;53202;50.976;18.216;2023-02-01T16:15:46;35.80;;;16.10;;
57313;SDS011;53202;50.976;18.216;2023-02-01T16:25:31;21.90;;;12.50;;
57313;SDS011;53202;50.976;18.216;2023-02-01T16:35:22;44.70;;;18.70;;
57313;SDS011;53202;50.976;18.216;2023-02-01T16:45:10;66.80;;;27.90;;
57313;SDS011;53202;50.976;18.216;2023-02-01T16:54:55;86.10;;;44.00;;
57313;SDS011;53202;50.976;18.216;2023-02-01T17:04:41;45.60;;;25.00;;
57313;SDS011;53202;50.976;18.216;2023-02-01T17:14:30;39.00;;;17.10;;
57313;SDS011;53202;50.976;18.216;2023-02-01T17:24:18;34.30;;;12.50;;
57313;SDS011;53202;50.976;18.216;2023-02-01T17:34:04;15.80;;;7.00;;
57313;SDS011;53202;50.976;18.216;2023-02-01T17:43:48;14.30;;;7.80;;
57313;SDS011;53202;50.976;18.216;2023-02-01T17:53:42;20.10;;;9.10;;
57313;SDS011;53202;50.976;18.216;2023-02-01T18:03:29;25.60;;;11.70;;
57313;SDS011;53202;50.976;18.216;2023-02-01T18:13:18;28.40;;;15.70;;
57313;SDS011;53202;50.976;18.216;2023-02-01T18:23:08;8.80;;;7.00;;
57313;SDS011;53202;50.976;18.216;2023-02-01T18:32:57;51.10;;;12.00;;
57313;SDS011;53202;50.976;18.216;2023-02-01T18:42:49;38.60;;;17.40;;
57313;SDS011;53202;50.976;18.216;2023-02-01T18:52:42;38.20;;;17.60;;
57313;SDS011;53202;50.976;18.216;2023-02-01T19:02:26;57.90;;;21.30;;
57313;SDS011;53202;50.976;18.216;2023-02-01T19:12:11;30.70;;;14.20;;
57313;SDS011;53202;50.976;18.216;2023-02-01T19:21:54;37.00;;;17.10;;
57313;SDS011;53202;50.976;18.216;2023-02-01T19:31:40;19.50;;;13.20;;
57313;SDS011;53202;50.976;18.216;2023-02-01T19:41:29;22.40;;;15.60;;
57313;SDS011;53202;50.976;18.216;2023-02-01T19:51:15;63.50;;;23.80;;
57313;SDS011;53202;50.976;18.216;2023-02-01T19:53:42;44.40;;;21.50;;
57313;SDS011;53202;50.976;18.216;2023-02-01T20:03:26;53.10;;;31.30;;
57313;SDS011;53202;50.976;18.216;2023-02-01T20:13:10;80.00;;;38.70;;
57313;SDS011;53202;50.976;18.216;2023-02-01T20:22:54;77.10;;;42.10;;
57313;SDS011;53202;50.976;18.216;2023-02-01T20:32:44;27.20;;;15.20;;
57313;SDS011;53202;50.976;18.216;2023-02-01T20:42:29;56.60;;;31.50;;
57313;SDS011;53202;50.976;18.216;2023-02-01T20:52:15;49.70;;;26.80;;
57313;SDS011;53202;50.976;18.216;2023-02-01T21:01:59;39.80;;;22.00;;
57313;SDS011;53202;50.976;18.216;2023-02-01T21:04:26;85.30;;;49.20;;
57313;SDS011;53202;50.976;18.216;2023-02-01T21:14:12;38.00;;;24.40;;
57313;SDS011;53202;50.976;18.216;2023-02-01T21:23:57;10.20;;;6.50;;
57313;SDS011;53202;50.976;18.216;2023-02-01T21:33:43;13.00;;;8.00;;
57313;SDS011;53202;50.976;18.216;2023-02-01T21:43:57;7.90;;;6.20;;
57313;SDS011;53202;50.976;18.216;2023-02-01T21:53:42;3.40;;;3.10;;
57313;SDS011;53202;50.976;18.216;2023-02-01T22:03:25;9.90;;;5.60;;
57313;SDS011;53202;50.976;18.216;2023-02-01T22:13:09;14.20;;;7.70;;
57313;SDS011;53202;50.976;18.216;2023-02-01T22:22:53;6.90;;;6.30;;
57313;SDS011;53202;50.976;18.216;2023-02-01T22:32:42;15.00;;;5.00;;
57313;SDS011;53202;50.976;18.216;2023-02-01T22:42:27;4.30;;;3.70;;
57313;SDS011;53202;50.976;18.216;2023-02-01T22:58:52;11.70;;;7.10;;
57313;SDS011;53202;50.976;18.216;2023-02-01T23:08:39;6.10;;;4.50;;
57313;SDS011;53202;50.976;18.216;2023-02-01T23:18:23;11.70;;;7.10;;
57313;SDS011;53202;50.976;18.216;2023-02-01T23:28:13;26.40;;;6.60;;
57313;SDS011;53202;50.976;18.216;2023-02-01T23:37:58;19.40;;;9.10;;
57313;SDS011;53202;50.976;18.216;2023-02-01T23:47:53;6.70;;;4.80;;
57313;SDS011;53202;50.976;18.216;2023-02-01T23:57:37;10.50;;;4.80;;
